sensor_id;sensor_type;location;lat;lon;timestamp;temperature;humidity
14409;DHT22;7289;50.706;4.992;2022-12-11T00:01:08;2.20;99.90
14409;DHT22;7289;50.706;4.992;2022-12-11T00:03:36;2.20;99.90
14409;DHT22;7289;50.706;4.992;2022-12-11T00:06:09;2.20;99.90
14409;DHT22;7289;50.706;4.992;2022-12-11T00:08:38;2.10;99.90
14409;DHT22;7289;50.706;4.992;2022-12-11T00:11:07;2.00;99.90
14409;DHT22;7289;50.706;4.992;2022-12-11T00:13:36;1.90;99.90
14409;DHT22;7289;50.706;4.992;2022-12-11T00:16:05;1.80;99.90
14409;DHT22;7289;50.706;4.992;2022-12-11T00:18:33;2.00;99.90
14409;DHT22;7289;50.706;4.992;2022-12-11T00:21:02;1.90;99.90
14409;DHT22;7289;50.706;4.992;2022-12-11T00:23:33;1.80;99.90
14409;DHT22;7289;50.706;4.992;2022-12-11T00:26:04;1.80;99.90
14409;DHT22;7289;50.706;4.992;2022-12-11T00:28:33;1.80;99.90
14409;DHT22;7289;50.706;4.992;2022-12-11T00:31:03;1.80;99.90
14409;DHT22;7289;50.706;4.992;2022-12-11T00:33:31;1.80;99.90
14409;DHT22;7289;50.706;4.992;2022-12-11T00:36:00;1.90;99.90
14409;DHT22;7289;50.706;4.992;2022-12-11T00:38:28;1.80;99.90
14409;DHT22;7289;50.706;4.992;2022-12-11T00:40:59;1.90;99.90
14409;DHT22;7289;50.706;4.992;2022-12-11T00:43:27;1.90;99.90
14409;DHT22;7289;50.706;4.992;2022-12-11T00:45:55;1.80;99.90
14409;DHT22;7289;50.706;4.992;2022-12-11T00:48:23;1.80;99.90
14409;DHT22;7289;50.706;4.992;2022-12-11T00:50:51;1.80;99.90
14409;DHT22;7289;50.706;4.992;2022-12-11T00:53:20;1.90;99.90
14409;DHT22;7289;50.706;4.992;2022-12-11T00:55:48;1.90;99.90
14409;DHT22;7289;50.706;4.992;2022-12-11T00:58:18;2.00;99.90
14409;DHT22;7289;50.706;4.992;2022-12-11T01:00:46;2.00;99.90
14409;DHT22;7289;50.706;4.992;2022-12-11T01:03:16;2.10;99.90
14409;DHT22;7289;50.706;4.992;2022-12-11T01:05:54;2.30;99.90
14409;DHT22;7289;50.706;4.992;2022-12-11T01:08:22;2.20;99.90
14409;DHT22;7289;50.706;4.992;2022-12-11T01:10:50;2.20;99.90
14409;DHT22;7289;50.706;4.992;2022-12-11T01:13:19;2.10;99.90
14409;DHT22;7289;50.706;4.992;2022-12-11T01:15:47;2.20;99.90
14409;DHT22;7289;50.706;4.992;2022-12-11T01:18:15;2.20;99.90
14409;DHT22;7289;50.706;4.992;2022-12-11T01:20:43;2.30;99.90
14409;DHT22;7289;50.706;4.992;2022-12-11T01:23:12;2.30;99.90
14409;DHT22;7289;50.706;4.992;2022-12-11T01:25:41;2.10;99.90
14409;DHT22;7289;50.706;4.992;2022-12-11T01:28:09;2.30;99.90
14409;DHT22;7289;50.706;4.992;2022-12-11T01:30:40;2.30;99.90
14409;DHT22;7289;50.706;4.992;2022-12-11T01:33:09;2.20;99.90
14409;DHT22;7289;50.706;4.992;2022-12-11T01:35:38;2.20;99.90
14409;DHT22;7289;50.706;4.992;2022-12-11T01:38:07;2.20;99.90
14409;DHT22;7289;50.706;4.992;2022-12-11T01:40:36;2.20;99.90
14409;DHT22;7289;50.706;4.992;2022-12-11T01:43:05;2.20;99.90
14409;DHT22;7289;50.706;4.992;2022-12-11T01:45:41;2.30;99.90
14409;DHT22;7289;50.706;4.992;2022-12-11T01:48:13;2.30;99.90
14409;DHT22;7289;50.706;4.992;2022-12-11T01:50:46;2.40;99.90
14409;DHT22;7289;50.706;4.992;2022-12-11T01:53:18;2.30;99.90
14409;DHT22;7289;50.706;4.992;2022-12-11T01:55:48;2.30;99.90
14409;DHT22;7289;50.706;4.992;2022-12-11T01:58:20;2.30;99.90
14409;DHT22;7289;50.706;4.992;2022-12-11T02:00:50;2.20;99.90
14409;DHT22;7289;50.706;4.992;2022-12-11T02:03:20;2.10;99.90
14409;DHT22;7289;50.706;4.992;2022-12-11T02:05:48;2.00;99.90
14409;DHT22;7289;50.706;4.992;2022-12-11T02:08:17;2.00;99.90
14409;DHT22;7289;50.706;4.992;2022-12-11T02:10:53;2.00;99.90
14409;DHT22;7289;50.706;4.992;2022-12-11T02:13:32;2.00;99.90
14409;DHT22;7289;50.706;4.992;2022-12-11T02:16:08;2.00;99.90
14409;DHT22;7289;50.706;4.992;2022-12-11T02:18:46;1.80;99.90
14409;DHT22;7289;50.706;4.992;2022-12-11T02:21:19;2.00;99.90
14409;DHT22;7289;50.706;4.992;2022-12-11T02:24:08;1.80;99.90
14409;DHT22;7289;50.706;4.992;2022-12-11T02:26:54;1.90;99.90
14409;DHT22;7289;50.706;4.992;2022-12-11T02:29:29;2.00;99.90
14409;DHT22;7289;50.706;4.992;2022-12-11T02:32:02;2.00;99.90
14409;DHT22;7289;50.706;4.992;2022-12-11T02:34:36;2.00;99.90
14409;DHT22;7289;50.706;4.992;2022-12-11T02:37:10;2.10;99.90
14409;DHT22;7289;50.706;4.992;2022-12-11T02:39:41;2.00;99.90
14409;DHT22;7289;50.706;4.992;2022-12-11T02:42:11;2.10;99.90
14409;DHT22;7289;50.706;4.992;2022-12-11T02:44:42;1.90;99.90
14409;DHT22;7289;50.706;4.992;2022-12-11T02:47:14;2.00;99.90
14409;DHT22;7289;50.706;4.992;2022-12-11T02:49:44;2.00;99.90
14409;DHT22;7289;50.706;4.992;2022-12-11T02:52:17;2.00;99.90
14409;DHT22;7289;50.706;4.992;2022-12-11T02:54:46;2.00;99.90
14409;DHT22;7289;50.706;4.992;2022-12-11T02:57:22;2.00;99.90
14409;DHT22;7289;50.706;4.992;2022-12-11T02:59:53;2.20;99.90
14409;DHT22;7289;50.706;4.992;2022-12-11T03:02:22;2.00;99.90
14409;DHT22;7289;50.706;4.992;2022-12-11T03:04:50;2.00;99.90
14409;DHT22;7289;50.706;4.992;2022-12-11T03:07:22;2.10;99.90
14409;DHT22;7289;50.706;4.992;2022-12-11T03:09:51;2.20;99.90
14409;DHT22;7289;50.706;4.992;2022-12-11T03:12:22;2.20;99.90
14409;DHT22;7289;50.706;4.992;2022-12-11T03:14:51;2.20;99.90
14409;DHT22;7289;50.706;4.992;2022-12-11T03:17:23;2.20;99.90
14409;DHT22;7289;50.706;4.992;2022-12-11T03:19:57;2.20;99.90
14409;DHT22;7289;50.706;4.992;2022-12-11T03:22:33;2.20;99.90
14409;DHT22;7289;50.706;4.992;2022-12-11T03:25:08;2.20;99.90
14409;DHT22;7289;50.706;4.992;2022-12-11T03:27:43;2.30;99.90
14409;DHT22;7289;50.706;4.992;2022-12-11T03:30:16;2.30;99.90
14409;DHT22;7289;50.706;4.992;2022-12-11T03:32:50;2.30;99.90
14409;DHT22;7289;50.706;4.992;2022-12-11T03:35:23;2.30;99.90
14409;DHT22;7289;50.706;4.992;2022-12-11T03:37:54;2.30;99.90
14409;DHT22;7289;50.706;4.992;2022-12-11T03:40:25;2.30;99.90
14409;DHT22;7289;50.706;4.992;2022-12-11T03:42:55;2.30;99.90
14409;DHT22;7289;50.706;4.992;2022-12-11T03:45:25;2.40;99.90
14409;DHT22;7289;50.706;4.992;2022-12-11T03:47:57;2.30;99.90
14409;DHT22;7289;50.706;4.992;2022-12-11T03:50:29;2.30;99.90
14409;DHT22;7289;50.706;4.992;2022-12-11T03:52:59;2.20;99.90
14409;DHT22;7289;50.706;4.992;2022-12-11T03:55:29;2.30;99.90
14409;DHT22;7289;50.706;4.992;2022-12-11T03:57:59;2.30;99.90
14409;DHT22;7289;50.706;4.992;2022-12-11T04:00:28;2.30;99.90
14409;DHT22;7289;50.706;4.992;2022-12-11T04:02:58;2.20;99.90
14409;DHT22;7289;50.706;4.992;2022-12-11T04:05:43;2.20;99.90
14409;DHT22;7289;50.706;4.992;2022-12-11T04:08:12;2.20;99.90
14409;DHT22;7289;50.706;4.992;2022-12-11T04:10:41;2.20;99.90
14409;DHT22;7289;50.706;4.992;2022-12-11T04:13:10;2.20;99.90
14409;DHT22;7289;50.706;4.992;2022-12-11T04:15:38;2.20;99.90
14409;DHT22;7289;50.706;4.992;2022-12-11T04:18:08;2.30;99.90
14409;DHT22;7289;50.706;4.992;2022-12-11T04:21:07;2.40;99.90
14409;DHT22;7289;50.706;4.992;2022-12-11T04:23:53;2.30;99.90
14409;DHT22;7289;50.706;4.992;2022-12-11T04:26:39;2.40;99.90
14409;DHT22;7289;50.706;4.992;2022-12-11T04:29:07;2.40;99.90
14409;DHT22;7289;50.706;4.992;2022-12-11T04:31:35;2.30;99.90
14409;DHT22;7289;50.706;4.992;2022-12-11T04:34:05;2.40;99.90
14409;DHT22;7289;50.706;4.992;2022-12-11T04:36:33;2.20;99.90
14409;DHT22;7289;50.706;4.992;2022-12-11T04:39:02;2.40;99.90
14409;DHT22;7289;50.706;4.992;2022-12-11T04:41:30;2.30;99.90
14409;DHT22;7289;50.706;4.992;2022-12-11T04:43:58;2.30;99.90
14409;DHT22;7289;50.706;4.992;2022-12-11T04:46:27;2.40;99.90
14409;DHT22;7289;50.706;4.992;2022-12-11T04:48:55;2.30;99.90
14409;DHT22;7289;50.706;4.992;2022-12-11T04:51:27;2.20;99.90
14409;DHT22;7289;50.706;4.992;2022-12-11T04:53:57;2.20;99.90
14409;DHT22;7289;50.706;4.992;2022-12-11T04:56:25;2.20;99.90
14409;DHT22;7289;50.706;4.992;2022-12-11T04:58:54;2.30;99.90
14409;DHT22;7289;50.706;4.992;2022-12-11T05:01:22;2.20;99.90
14409;DHT22;7289;50.706;4.992;2022-12-11T05:03:50;2.20;99.90
14409;DHT22;7289;50.706;4.992;2022-12-11T05:06:19;2.10;99.90
14409;DHT22;7289;50.706;4.992;2022-12-11T05:08:48;2.10;99.90
14409;DHT22;7289;50.706;4.992;2022-12-11T05:11:16;2.20;99.90
14409;DHT22;7289;50.706;4.992;2022-12-11T05:13:45;2.20;99.90
14409;DHT22;7289;50.706;4.992;2022-12-11T05:16:15;2.20;99.90
14409;DHT22;7289;50.706;4.992;2022-12-11T05:18:43;2.40;99.90
14409;DHT22;7289;50.706;4.992;2022-12-11T05:21:14;2.30;99.90
14409;DHT22;7289;50.706;4.992;2022-12-11T05:23:42;2.30;99.90
14409;DHT22;7289;50.706;4.992;2022-12-11T05:26:14;2.10;99.90
14409;DHT22;7289;50.706;4.992;2022-12-11T05:28:43;2.20;99.90
14409;DHT22;7289;50.706;4.992;2022-12-11T05:31:13;2.20;99.90
14409;DHT22;7289;50.706;4.992;2022-12-11T05:33:42;2.20;99.90
14409;DHT22;7289;50.706;4.992;2022-12-11T05:36:14;2.20;99.90
14409;DHT22;7289;50.706;4.992;2022-12-11T05:38:44;2.10;99.90
14409;DHT22;7289;50.706;4.992;2022-12-11T05:41:16;2.20;99.90
14409;DHT22;7289;50.706;4.992;2022-12-11T05:43:45;2.10;99.90
14409;DHT22;7289;50.706;4.992;2022-12-11T05:46:15;2.10;99.90
14409;DHT22;7289;50.706;4.992;2022-12-11T05:48:45;2.10;99.90
14409;DHT22;7289;50.706;4.992;2022-12-11T05:51:14;2.10;99.90
14409;DHT22;7289;50.706;4.992;2022-12-11T05:53:45;2.10;99.90
14409;DHT22;7289;50.706;4.992;2022-12-11T05:56:17;2.10;99.90
14409;DHT22;7289;50.706;4.992;2022-12-11T05:58:45;2.10;99.90
14409;DHT22;7289;50.706;4.992;2022-12-11T06:01:17;2.20;99.90
14409;DHT22;7289;50.706;4.992;2022-12-11T06:03:46;2.00;99.90
14409;DHT22;7289;50.706;4.992;2022-12-11T06:06:15;2.00;99.90
14409;DHT22;7289;50.706;4.992;2022-12-11T06:08:43;2.00;99.90
14409;DHT22;7289;50.706;4.992;2022-12-11T06:11:12;2.10;99.90
14409;DHT22;7289;50.706;4.992;2022-12-11T06:13:48;2.20;99.90
14409;DHT22;7289;50.706;4.992;2022-12-11T06:16:16;2.10;99.90
14409;DHT22;7289;50.706;4.992;2022-12-11T06:18:44;2.10;99.90
14409;DHT22;7289;50.706;4.992;2022-12-11T06:21:13;2.20;99.90
14409;DHT22;7289;50.706;4.992;2022-12-11T06:23:43;2.10;99.90
14409;DHT22;7289;50.706;4.992;2022-12-11T06:26:12;2.00;99.90
14409;DHT22;7289;50.706;4.992;2022-12-11T06:28:40;2.10;99.90
14409;DHT22;7289;50.706;4.992;2022-12-11T06:31:10;2.00;99.90
14409;DHT22;7289;50.706;4.992;2022-12-11T06:33:41;2.00;99.90
14409;DHT22;7289;50.706;4.992;2022-12-11T06:36:11;2.10;99.90
14409;DHT22;7289;50.706;4.992;2022-12-11T06:38:40;2.10;99.90
14409;DHT22;7289;50.706;4.992;2022-12-11T06:41:08;2.10;99.90
14409;DHT22;7289;50.706;4.992;2022-12-11T06:43:38;2.00;99.90
14409;DHT22;7289;50.706;4.992;2022-12-11T06:46:10;2.10;99.90
14409;DHT22;7289;50.706;4.992;2022-12-11T06:48:39;2.10;99.90
14409;DHT22;7289;50.706;4.992;2022-12-11T06:51:10;1.90;99.90
14409;DHT22;7289;50.706;4.992;2022-12-11T06:53:38;2.00;99.90
14409;DHT22;7289;50.706;4.992;2022-12-11T06:56:08;2.00;99.90
14409;DHT22;7289;50.706;4.992;2022-12-11T06:58:38;1.90;99.90
14409;DHT22;7289;50.706;4.992;2022-12-11T07:01:14;1.90;99.90
14409;DHT22;7289;50.706;4.992;2022-12-11T07:03:43;1.90;99.90
14409;DHT22;7289;50.706;4.992;2022-12-11T07:06:12;1.90;99.90
14409;DHT22;7289;50.706;4.992;2022-12-11T07:08:40;1.90;99.90
14409;DHT22;7289;50.706;4.992;2022-12-11T07:11:10;1.90;99.90
14409;DHT22;7289;50.706;4.992;2022-12-11T07:13:39;2.00;99.90
14409;DHT22;7289;50.706;4.992;2022-12-11T07:16:10;1.90;99.90
14409;DHT22;7289;50.706;4.992;2022-12-11T07:18:41;1.80;99.90
14409;DHT22;7289;50.706;4.992;2022-12-11T07:21:11;1.80;99.90
14409;DHT22;7289;50.706;4.992;2022-12-11T07:23:40;1.80;99.90
14409;DHT22;7289;50.706;4.992;2022-12-11T07:26:10;1.80;99.90
14409;DHT22;7289;50.706;4.992;2022-12-11T07:28:39;1.80;99.90
14409;DHT22;7289;50.706;4.992;2022-12-11T07:31:09;1.70;99.90
14409;DHT22;7289;50.706;4.992;2022-12-11T07:33:39;1.80;99.90
14409;DHT22;7289;50.706;4.992;2022-12-11T07:36:09;1.80;99.90
14409;DHT22;7289;50.706;4.992;2022-12-11T07:38:38;1.80;99.90
14409;DHT22;7289;50.706;4.992;2022-12-11T07:41:10;1.90;99.90
14409;DHT22;7289;50.706;4.992;2022-12-11T07:43:39;1.90;99.90
14409;DHT22;7289;50.706;4.992;2022-12-11T07:46:09;2.00;99.90
14409;DHT22;7289;50.706;4.992;2022-12-11T07:48:40;2.00;99.90
14409;DHT22;7289;50.706;4.992;2022-12-11T07:51:10;2.00;99.90
14409;DHT22;7289;50.706;4.992;2022-12-11T07:53:42;1.90;99.90
14409;DHT22;7289;50.706;4.992;2022-12-11T07:56:11;2.10;99.90
14409;DHT22;7289;50.706;4.992;2022-12-11T07:58:40;2.00;99.90
14409;DHT22;7289;50.706;4.992;2022-12-11T08:01:10;2.00;99.90
14409;DHT22;7289;50.706;4.992;2022-12-11T08:03:40;2.00;99.90
14409;DHT22;7289;50.706;4.992;2022-12-11T08:06:09;2.00;99.90
14409;DHT22;7289;50.706;4.992;2022-12-11T08:08:39;2.10;99.90
14409;DHT22;7289;50.706;4.992;2022-12-11T08:11:11;2.00;99.90
14409;DHT22;7289;50.706;4.992;2022-12-11T08:13:40;2.00;99.90
14409;DHT22;7289;50.706;4.992;2022-12-11T08:16:11;2.10;99.90
14409;DHT22;7289;50.706;4.992;2022-12-11T08:18:42;2.00;99.90
14409;DHT22;7289;50.706;4.992;2022-12-11T08:21:12;2.00;99.90
14409;DHT22;7289;50.706;4.992;2022-12-11T08:23:41;2.10;99.90
14409;DHT22;7289;50.706;4.992;2022-12-11T08:26:12;2.00;99.90
14409;DHT22;7289;50.706;4.992;2022-12-11T08:28:40;2.00;99.90
14409;DHT22;7289;50.706;4.992;2022-12-11T08:31:10;2.10;99.90
14409;DHT22;7289;50.706;4.992;2022-12-11T08:33:41;2.10;99.90
14409;DHT22;7289;50.706;4.992;2022-12-11T08:36:12;2.20;99.90
14409;DHT22;7289;50.706;4.992;2022-12-11T08:38:41;2.10;99.90
14409;DHT22;7289;50.706;4.992;2022-12-11T08:41:10;2.20;99.90
14409;DHT22;7289;50.706;4.992;2022-12-11T08:43:39;2.20;99.90
14409;DHT22;7289;50.706;4.992;2022-12-11T08:46:08;2.20;99.90
14409;DHT22;7289;50.706;4.992;2022-12-11T08:48:38;2.10;99.90
14409;DHT22;7289;50.706;4.992;2022-12-11T08:51:11;2.20;99.90
14409;DHT22;7289;50.706;4.992;2022-12-11T08:53:40;2.20;99.90
14409;DHT22;7289;50.706;4.992;2022-12-11T08:56:10;2.20;99.90
14409;DHT22;7289;50.706;4.992;2022-12-11T08:58:38;2.20;99.90
14409;DHT22;7289;50.706;4.992;2022-12-11T09:01:09;2.20;99.90
14409;DHT22;7289;50.706;4.992;2022-12-11T09:03:39;2.20;99.90
14409;DHT22;7289;50.706;4.992;2022-12-11T09:06:11;2.20;99.90
14409;DHT22;7289;50.706;4.992;2022-12-11T09:08:40;2.30;99.90
14409;DHT22;7289;50.706;4.992;2022-12-11T09:11:18;2.30;99.90
14409;DHT22;7289;50.706;4.992;2022-12-11T09:13:47;2.30;99.90
14409;DHT22;7289;50.706;4.992;2022-12-11T09:16:18;2.30;99.90
14409;DHT22;7289;50.706;4.992;2022-12-11T09:18:48;2.30;99.90
14409;DHT22;7289;50.706;4.992;2022-12-11T09:21:20;2.30;99.90
14409;DHT22;7289;50.706;4.992;2022-12-11T09:23:52;2.40;99.90
14409;DHT22;7289;50.706;4.992;2022-12-11T09:26:20;2.30;99.90
14409;DHT22;7289;50.706;4.992;2022-12-11T09:28:49;2.30;99.90
14409;DHT22;7289;50.706;4.992;2022-12-11T09:31:20;2.40;99.90
14409;DHT22;7289;50.706;4.992;2022-12-11T09:33:52;2.40;99.90
14409;DHT22;7289;50.706;4.992;2022-12-11T09:36:23;2.40;99.90
14409;DHT22;7289;50.706;4.992;2022-12-11T09:38:52;2.30;99.90
14409;DHT22;7289;50.706;4.992;2022-12-11T09:41:35;2.30;99.90
14409;DHT22;7289;50.706;4.992;2022-12-11T09:44:29;2.30;99.90
14409;DHT22;7289;50.706;4.992;2022-12-11T09:46:58;2.40;99.90
14409;DHT22;7289;50.706;4.992;2022-12-11T09:49:32;2.50;99.90
14409;DHT22;7289;50.706;4.992;2022-12-11T09:52:10;2.60;99.90
14409;DHT22;7289;50.706;4.992;2022-12-11T09:54:44;2.50;99.90
14409;DHT22;7289;50.706;4.992;2022-12-11T09:57:24;2.50;99.90
14409;DHT22;7289;50.706;4.992;2022-12-11T10:00:04;2.40;99.90
14409;DHT22;7289;50.706;4.992;2022-12-11T10:02:46;2.50;99.90
14409;DHT22;7289;50.706;4.992;2022-12-11T10:05:27;2.60;99.90
14409;DHT22;7289;50.706;4.992;2022-12-11T10:08:05;2.60;99.90
14409;DHT22;7289;50.706;4.992;2022-12-11T10:10:41;2.70;99.90
14409;DHT22;7289;50.706;4.992;2022-12-11T10:13:20;2.70;99.90
14409;DHT22;7289;50.706;4.992;2022-12-11T10:15:53;2.80;99.90
14409;DHT22;7289;50.706;4.992;2022-12-11T10:18:25;2.90;99.90
14409;DHT22;7289;50.706;4.992;2022-12-11T10:20:54;3.00;99.90
14409;DHT22;7289;50.706;4.992;2022-12-11T10:23:29;3.20;99.90
14409;DHT22;7289;50.706;4.992;2022-12-11T10:26:05;3.20;99.90
14409;DHT22;7289;50.706;4.992;2022-12-11T10:28:34;3.30;99.90
14409;DHT22;7289;50.706;4.992;2022-12-11T10:31:11;3.40;99.90
14409;DHT22;7289;50.706;4.992;2022-12-11T10:33:49;3.60;99.90
14409;DHT22;7289;50.706;4.992;2022-12-11T10:36:26;3.70;99.90
14409;DHT22;7289;50.706;4.992;2022-12-11T10:38:57;3.90;99.90
14409;DHT22;7289;50.706;4.992;2022-12-11T10:41:35;4.10;99.90
14409;DHT22;7289;50.706;4.992;2022-12-11T10:44:14;4.20;99.90
14409;DHT22;7289;50.706;4.992;2022-12-11T10:46:43;4.10;99.90
14409;DHT22;7289;50.706;4.992;2022-12-11T10:49:24;4.30;99.90
14409;DHT22;7289;50.706;4.992;2022-12-11T10:51:53;4.40;99.90
14409;DHT22;7289;50.706;4.992;2022-12-11T10:54:30;4.30;99.90
14409;DHT22;7289;50.706;4.992;2022-12-11T10:57:00;4.10;99.90
14409;DHT22;7289;50.706;4.992;2022-12-11T10:59:34;4.20;99.90
14409;DHT22;7289;50.706;4.992;2022-12-11T11:02:05;4.30;99.90
14409;DHT22;7289;50.706;4.992;2022-12-11T11:04:36;4.30;99.90
14409;DHT22;7289;50.706;4.992;2022-12-11T11:07:11;4.30;99.90
14409;DHT22;7289;50.706;4.992;2022-12-11T11:09:42;4.40;99.90
14409;DHT22;7289;50.706;4.992;2022-12-11T11:12:21;4.40;99.90
14409;DHT22;7289;50.706;4.992;2022-12-11T11:15:00;4.40;99.90
14409;DHT22;7289;50.706;4.992;2022-12-11T11:17:30;4.40;99.90
14409;DHT22;7289;50.706;4.992;2022-12-11T11:20:11;4.60;99.90
14409;DHT22;7289;50.706;4.992;2022-12-11T11:22:42;4.50;99.90
14409;DHT22;7289;50.706;4.992;2022-12-11T11:25:17;4.80;99.90
14409;DHT22;7289;50.706;4.992;2022-12-11T11:27:51;4.70;99.90
14409;DHT22;7289;50.706;4.992;2022-12-11T11:30:22;4.60;99.90
14409;DHT22;7289;50.706;4.992;2022-12-11T11:32:52;4.70;99.90
14409;DHT22;7289;50.706;4.992;2022-12-11T11:35:23;4.80;99.90
14409;DHT22;7289;50.706;4.992;2022-12-11T11:37:57;4.80;99.90
14409;DHT22;7289;50.706;4.992;2022-12-11T11:40:30;4.80;99.90
14409;DHT22;7289;50.706;4.992;2022-12-11T11:43:06;4.80;99.90
14409;DHT22;7289;50.706;4.992;2022-12-11T11:45:42;4.70;99.90
14409;DHT22;7289;50.706;4.992;2022-12-11T11:48:24;4.60;99.90
14409;DHT22;7289;50.706;4.992;2022-12-11T11:50:55;4.50;99.90
14409;DHT22;7289;50.706;4.992;2022-12-11T11:53:30;4.50;99.90
14409;DHT22;7289;50.706;4.992;2022-12-11T11:56:06;4.50;99.90
14409;DHT22;7289;50.706;4.992;2022-12-11T11:58:40;4.50;99.90
14409;DHT22;7289;50.706;4.992;2022-12-11T12:01:13;4.60;99.90
14409;DHT22;7289;50.706;4.992;2022-12-11T12:03:42;4.70;99.90
14409;DHT22;7289;50.706;4.992;2022-12-11T12:06:19;4.70;99.90
14409;DHT22;7289;50.706;4.992;2022-12-11T12:09:05;4.70;99.90
14409;DHT22;7289;50.706;4.992;2022-12-11T12:11:44;4.60;99.90
14409;DHT22;7289;50.706;4.992;2022-12-11T12:14:19;4.60;99.90
14409;DHT22;7289;50.706;4.992;2022-12-11T12:17:15;4.50;99.90
14409;DHT22;7289;50.706;4.992;2022-12-11T12:19:53;4.70;99.90
14409;DHT22;7289;50.706;4.992;2022-12-11T12:22:36;4.60;99.90
14409;DHT22;7289;50.706;4.992;2022-12-11T12:25:15;4.30;99.90
14409;DHT22;7289;50.706;4.992;2022-12-11T12:27:54;4.40;99.90
14409;DHT22;7289;50.706;4.992;2022-12-11T12:30:29;4.40;99.90
14409;DHT22;7289;50.706;4.992;2022-12-11T12:33:13;4.40;99.90
14409;DHT22;7289;50.706;4.992;2022-12-11T12:35:51;4.40;99.90
14409;DHT22;7289;50.706;4.992;2022-12-11T12:38:29;4.50;99.90
14409;DHT22;7289;50.706;4.992;2022-12-11T12:41:08;4.70;99.90
14409;DHT22;7289;50.706;4.992;2022-12-11T12:44:01;4.70;99.90
14409;DHT22;7289;50.706;4.992;2022-12-11T12:46:48;4.70;99.90
14409;DHT22;7289;50.706;4.992;2022-12-11T12:49:27;4.60;99.90
14409;DHT22;7289;50.706;4.992;2022-12-11T12:51:58;4.60;99.90
14409;DHT22;7289;50.706;4.992;2022-12-11T12:54:28;4.70;99.90
14409;DHT22;7289;50.706;4.992;2022-12-11T12:56:57;4.50;99.90
14409;DHT22;7289;50.706;4.992;2022-12-11T12:59:28;4.50;99.90
14409;DHT22;7289;50.706;4.992;2022-12-11T13:01:58;4.20;99.90
14409;DHT22;7289;50.706;4.992;2022-12-11T13:04:37;4.00;99.90
14409;DHT22;7289;50.706;4.992;2022-12-11T13:07:25;3.70;99.90
14409;DHT22;7289;50.706;4.992;2022-12-11T13:10:03;3.60;99.90
14409;DHT22;7289;50.706;4.992;2022-12-11T13:12:43;3.40;99.90
14409;DHT22;7289;50.706;4.992;2022-12-11T13:15:31;3.30;99.90
14409;DHT22;7289;50.706;4.992;2022-12-11T13:18:02;3.30;99.90
14409;DHT22;7289;50.706;4.992;2022-12-11T13:20:32;3.40;99.90
14409;DHT22;7289;50.706;4.992;2022-12-11T13:23:26;3.40;99.90
14409;DHT22;7289;50.706;4.992;2022-12-11T13:25:56;3.60;99.90
14409;DHT22;7289;50.706;4.992;2022-12-11T13:28:28;3.80;99.90
14409;DHT22;7289;50.706;4.992;2022-12-11T13:31:05;4.00;99.90
14409;DHT22;7289;50.706;4.992;2022-12-11T13:33:41;4.10;99.90
14409;DHT22;7289;50.706;4.992;2022-12-11T13:36:29;4.20;99.90
14409;DHT22;7289;50.706;4.992;2022-12-11T13:39:01;4.30;99.90
14409;DHT22;7289;50.706;4.992;2022-12-11T13:41:34;4.30;99.90
14409;DHT22;7289;50.706;4.992;2022-12-11T13:44:04;4.40;99.90
14409;DHT22;7289;50.706;4.992;2022-12-11T13:46:36;4.40;99.90
14409;DHT22;7289;50.706;4.992;2022-12-11T13:49:16;4.40;99.90
14409;DHT22;7289;50.706;4.992;2022-12-11T13:51:51;4.40;99.90
14409;DHT22;7289;50.706;4.992;2022-12-11T13:54:20;4.30;99.90
14409;DHT22;7289;50.706;4.992;2022-12-11T13:57:00;4.30;99.90
14409;DHT22;7289;50.706;4.992;2022-12-11T13:59:31;4.40;99.90
14409;DHT22;7289;50.706;4.992;2022-12-11T14:02:05;4.40;99.90
14409;DHT22;7289;50.706;4.992;2022-12-11T14:04:38;4.40;99.90
14409;DHT22;7289;50.706;4.992;2022-12-11T14:07:07;4.30;99.90
14409;DHT22;7289;50.706;4.992;2022-12-11T14:09:38;4.40;99.90
14409;DHT22;7289;50.706;4.992;2022-12-11T14:12:15;4.30;99.90
14409;DHT22;7289;50.706;4.992;2022-12-11T14:14:47;4.40;99.90
14409;DHT22;7289;50.706;4.992;2022-12-11T14:17:22;4.30;99.90
14409;DHT22;7289;50.706;4.992;2022-12-11T14:19:52;4.20;99.90
14409;DHT22;7289;50.706;4.992;2022-12-11T14:22:23;4.30;99.90
14409;DHT22;7289;50.706;4.992;2022-12-11T14:24:53;4.30;99.90
14409;DHT22;7289;50.706;4.992;2022-12-11T14:27:23;4.30;99.90
14409;DHT22;7289;50.706;4.992;2022-12-11T14:29:52;4.20;99.90
14409;DHT22;7289;50.706;4.992;2022-12-11T14:32:29;4.10;99.90
14409;DHT22;7289;50.706;4.992;2022-12-11T14:35:00;4.20;99.90
14409;DHT22;7289;50.706;4.992;2022-12-11T14:37:29;4.10;99.90
14409;DHT22;7289;50.706;4.992;2022-12-11T14:40:00;4.00;99.90
14409;DHT22;7289;50.706;4.992;2022-12-11T14:42:32;4.00;99.90
14409;DHT22;7289;50.706;4.992;2022-12-11T14:45:07;3.90;99.90
14409;DHT22;7289;50.706;4.992;2022-12-11T14:47:42;3.80;99.90
14409;DHT22;7289;50.706;4.992;2022-12-11T14:50:16;3.80;99.90
14409;DHT22;7289;50.706;4.992;2022-12-11T14:52:47;3.80;99.90
14409;DHT22;7289;50.706;4.992;2022-12-11T14:55:20;3.80;99.90
14409;DHT22;7289;50.706;4.992;2022-12-11T14:57:51;3.70;99.90
14409;DHT22;7289;50.706;4.992;2022-12-11T15:00:23;3.70;99.90
14409;DHT22;7289;50.706;4.992;2022-12-11T15:03:01;3.60;99.90
14409;DHT22;7289;50.706;4.992;2022-12-11T15:05:32;3.50;99.90
14409;DHT22;7289;50.706;4.992;2022-12-11T15:08:18;3.60;99.90
14409;DHT22;7289;50.706;4.992;2022-12-11T15:11:09;3.50;99.90
14409;DHT22;7289;50.706;4.992;2022-12-11T15:13:46;3.60;99.90
14409;DHT22;7289;50.706;4.992;2022-12-11T15:16:15;3.70;99.90
14409;DHT22;7289;50.706;4.992;2022-12-11T15:18:47;3.70;99.90
14409;DHT22;7289;50.706;4.992;2022-12-11T15:21:17;3.60;99.90
14409;DHT22;7289;50.706;4.992;2022-12-11T15:23:49;3.50;99.90
14409;DHT22;7289;50.706;4.992;2022-12-11T15:26:19;3.50;99.90
14409;DHT22;7289;50.706;4.992;2022-12-11T15:28:58;3.50;99.90
14409;DHT22;7289;50.706;4.992;2022-12-11T15:31:29;3.50;99.90
14409;DHT22;7289;50.706;4.992;2022-12-11T15:33:59;3.40;99.90
14409;DHT22;7289;50.706;4.992;2022-12-11T15:36:31;3.40;99.90
14409;DHT22;7289;50.706;4.992;2022-12-11T15:39:00;3.40;99.90
14409;DHT22;7289;50.706;4.992;2022-12-11T15:41:29;3.60;99.90
14409;DHT22;7289;50.706;4.992;2022-12-11T15:44:02;3.40;99.90
14409;DHT22;7289;50.706;4.992;2022-12-11T15:46:35;3.40;99.90
14409;DHT22;7289;50.706;4.992;2022-12-11T15:49:10;3.40;99.90
14409;DHT22;7289;50.706;4.992;2022-12-11T15:51:39;3.30;99.90
14409;DHT22;7289;50.706;4.992;2022-12-11T15:54:09;3.40;99.90
14409;DHT22;7289;50.706;4.992;2022-12-11T15:56:38;3.30;99.90
14409;DHT22;7289;50.706;4.992;2022-12-11T15:59:06;3.30;99.90
14409;DHT22;7289;50.706;4.992;2022-12-11T16:01:34;3.20;99.90
14409;DHT22;7289;50.706;4.992;2022-12-11T16:04:03;3.20;99.90
14409;DHT22;7289;50.706;4.992;2022-12-11T16:06:32;3.10;99.90
14409;DHT22;7289;50.706;4.992;2022-12-11T16:09:01;3.10;99.90
14409;DHT22;7289;50.706;4.992;2022-12-11T16:11:30;3.20;99.90
14409;DHT22;7289;50.706;4.992;2022-12-11T16:13:59;3.20;99.90
14409;DHT22;7289;50.706;4.992;2022-12-11T16:16:30;3.10;99.90
14409;DHT22;7289;50.706;4.992;2022-12-11T16:18:59;3.10;99.90
14409;DHT22;7289;50.706;4.992;2022-12-11T16:21:27;3.00;99.90
14409;DHT22;7289;50.706;4.992;2022-12-11T16:23:57;3.00;99.90
14409;DHT22;7289;50.706;4.992;2022-12-11T16:26:25;3.10;99.90
14409;DHT22;7289;50.706;4.992;2022-12-11T16:28:54;3.00;99.90
14409;DHT22;7289;50.706;4.992;2022-12-11T16:31:22;3.00;99.90
14409;DHT22;7289;50.706;4.992;2022-12-11T16:33:50;3.00;99.90